Terminal Aerodrome Forecast
Issued by NWS Jackson, MS

Home | Current Version | Previous Version | Text Only | Print | Product List | Glossary On
Versions: 1 2 3 4 5 6 7 8 9 10 11 12
000
FTUS44 KJAN 280500
TAFMEI
TAF
KMEI 280523Z 2806/2906 22003KT 6SM BR SCT250
     FM281000 23003KT 4SM BR VCSH SCT035 BKN250
     FM281400 31010KT P6SM SCT250
     FM290200 31003KT P6SM SKC=

USA.gov is the U.S. government's official web portal to all federal, state and local government web resources and services.